sensor_id;sensor_type;location;lat;lon;timestamp;pressure;altitude;pressure_sealevel;temperature;humidity
25232;BME280;13176;51.140;6.290;2022-11-04T00:01:44;99548.94;;;14.58;76.56
25232;BME280;13176;51.140;6.290;2022-11-04T00:04:13;99535.09;;;14.38;77.06
25232;BME280;13176;51.140;6.290;2022-11-04T00:06:40;99563.56;;;14.45;77.00
25232;BME280;13176;51.140;6.290;2022-11-04T00:09:10;99567.63;;;14.52;77.34
25232;BME280;13176;51.140;6.290;2022-11-04T00:11:36;99527.84;;;14.06;78.71
25232;BME280;13176;51.140;6.290;2022-11-04T00:14:21;99562.88;;;14.05;79.95
25232;BME280;13176;51.140;6.290;2022-11-04T00:16:48;99558.91;;;13.96;81.30
25232;BME280;13176;51.140;6.290;2022-11-04T00:19:33;99525.41;;;13.46;83.73
25232;BME280;13176;51.140;6.290;2022-11-04T00:22:39;99571.91;;;13.79;85.46
25232;BME280;13176;51.140;6.290;2022-11-04T00:25:25;99522.56;;;13.51;85.85
25232;BME280;13176;51.140;6.290;2022-11-04T00:28:11;99581.19;;;13.68;86.58
25232;BME280;13176;51.140;6.290;2022-11-04T00:30:59;99576.72;;;13.50;88.06
25232;BME280;13176;51.140;6.290;2022-11-04T00:33:49;99515.97;;;13.22;87.75
25232;BME280;13176;51.140;6.290;2022-11-04T00:36:16;99563.63;;;13.50;87.54
25232;BME280;13176;51.140;6.290;2022-11-04T00:38:42;99529.34;;;13.36;86.80
25232;BME280;13176;51.140;6.290;2022-11-04T00:41:09;99559.69;;;13.60;86.52
25232;BME280;13176;51.140;6.290;2022-11-04T00:44:00;99602.16;;;13.48;87.94
25232;BME280;13176;51.140;6.290;2022-11-04T00:46:29;99617.34;;;13.60;87.74
25232;BME280;13176;51.140;6.290;2022-11-04T00:48:56;99590.91;;;13.26;87.85
25232;BME280;13176;51.140;6.290;2022-11-04T00:51:23;99601.03;;;13.34;87.76
25232;BME280;13176;51.140;6.290;2022-11-04T00:53:50;99629.81;;;13.55;88.28
25232;BME280;13176;51.140;6.290;2022-11-04T00:56:17;99572.78;;;13.22;87.73
25232;BME280;13176;51.140;6.290;2022-11-04T00:58:43;99605.84;;;13.44;87.40
25232;BME280;13176;51.140;6.290;2022-11-04T01:01:11;99626.00;;;13.62;86.46
25232;BME280;13176;51.140;6.290;2022-11-04T01:03:38;99617.75;;;13.51;87.12
25232;BME280;13176;51.140;6.290;2022-11-04T01:06:05;99594.31;;;13.28;86.89
25232;BME280;13176;51.140;6.290;2022-11-04T01:08:32;99609.66;;;13.37;87.06
25232;BME280;13176;51.140;6.290;2022-11-04T01:11:02;99607.81;;;13.39;86.55
25232;BME280;13176;51.140;6.290;2022-11-04T01:13:29;99603.47;;;13.18;87.28
25232;BME280;13176;51.140;6.290;2022-11-04T01:16:00;99590.19;;;13.23;85.72
25232;BME280;13176;51.140;6.290;2022-11-04T01:18:26;99596.13;;;13.26;85.14
25232;BME280;13176;51.140;6.290;2022-11-04T01:20:53;99592.34;;;13.33;84.83
25232;BME280;13176;51.140;6.290;2022-11-04T01:23:19;99574.28;;;13.07;85.10
25232;BME280;13176;51.140;6.290;2022-11-04T01:25:46;99633.69;;;13.27;85.73
25232;BME280;13176;51.140;6.290;2022-11-04T01:28:12;99634.41;;;13.30;84.83
25232;BME280;13176;51.140;6.290;2022-11-04T01:30:38;99619.13;;;13.40;84.27
25232;BME280;13176;51.140;6.290;2022-11-04T01:33:05;99633.81;;;13.44;83.84
25232;BME280;13176;51.140;6.290;2022-11-04T01:35:31;99619.84;;;13.23;84.71
25232;BME280;13176;51.140;6.290;2022-11-04T01:37:58;99655.31;;;13.52;84.09
25232;BME280;13176;51.140;6.290;2022-11-04T01:40:24;99622.22;;;13.29;83.51
25232;BME280;13176;51.140;6.290;2022-11-04T01:42:51;99642.47;;;13.46;83.18
25232;BME280;13176;51.140;6.290;2022-11-04T01:45:19;99663.38;;;13.67;82.31
25232;BME280;13176;51.140;6.290;2022-11-04T01:47:58;99643.81;;;13.54;82.09
25232;BME280;13176;51.140;6.290;2022-11-04T01:50:29;99646.94;;;13.64;81.97
25232;BME280;13176;51.140;6.290;2022-11-04T01:53:04;99678.19;;;13.68;81.58
25232;BME280;13176;51.140;6.290;2022-11-04T01:55:34;99620.25;;;13.34;81.72
25232;BME280;13176;51.140;6.290;2022-11-04T01:58:09;99646.66;;;13.50;81.52
25232;BME280;13176;51.140;6.290;2022-11-04T02:00:40;99640.22;;;13.37;81.83
25232;BME280;13176;51.140;6.290;2022-11-04T02:03:35;99675.16;;;13.57;81.41
25232;BME280;13176;51.140;6.290;2022-11-04T02:06:03;99654.72;;;13.45;81.32
25232;BME280;13176;51.140;6.290;2022-11-04T02:08:31;99645.78;;;13.49;80.74
25232;BME280;13176;51.140;6.290;2022-11-04T02:10:59;99684.88;;;13.75;80.56
25232;BME280;13176;51.140;6.290;2022-11-04T02:13:27;99654.19;;;13.57;80.38
25232;BME280;13176;51.140;6.290;2022-11-04T02:18:53;99680.13;;;13.63;79.84
25232;BME280;13176;51.140;6.290;2022-11-04T02:30:10;99681.44;;;13.53;79.73
25232;BME280;13176;51.140;6.290;2022-11-04T02:33:04;99621.91;;;12.95;80.38
25232;BME280;13176;51.140;6.290;2022-11-04T02:38:21;99675.75;;;13.22;80.63
25232;BME280;13176;51.140;6.290;2022-11-04T02:41:11;99672.66;;;13.34;79.93
25232;BME280;13176;51.140;6.290;2022-11-04T02:44:06;99671.06;;;13.30;79.99
25232;BME280;13176;51.140;6.290;2022-11-04T02:49:11;99632.00;;;13.04;80.32
25232;BME280;13176;51.140;6.290;2022-11-04T02:54:31;99638.88;;;13.07;80.00
25232;BME280;13176;51.140;6.290;2022-11-04T02:57:00;99644.91;;;13.09;80.27
25232;BME280;13176;51.140;6.290;2022-11-04T02:59:34;99639.78;;;13.06;80.20
25232;BME280;13176;51.140;6.290;2022-11-04T03:02:05;99616.53;;;12.98;79.52
25232;BME280;13176;51.140;6.290;2022-11-04T03:04:37;99577.25;;;12.77;79.37
25232;BME280;13176;51.140;6.290;2022-11-04T03:07:07;99638.19;;;13.02;79.74
25232;BME280;13176;51.140;6.290;2022-11-04T03:09:43;99569.31;;;12.58;79.85
25232;BME280;13176;51.140;6.290;2022-11-04T03:12:14;99618.72;;;13.09;79.14
25232;BME280;13176;51.140;6.290;2022-11-04T03:14:47;99600.09;;;12.95;78.50
25232;BME280;13176;51.140;6.290;2022-11-04T03:17:22;99597.44;;;12.96;78.76
25232;BME280;13176;51.140;6.290;2022-11-04T03:19:55;99621.41;;;13.07;78.52
25232;BME280;13176;51.140;6.290;2022-11-04T03:22:25;99660.34;;;13.36;78.33
25232;BME280;13176;51.140;6.290;2022-11-04T03:24:53;99622.47;;;13.23;78.07
25232;BME280;13176;51.140;6.290;2022-11-04T03:30:03;99663.75;;;13.38;78.08
25232;BME280;13176;51.140;6.290;2022-11-04T03:34:58;99648.03;;;13.38;77.03
25232;BME280;13176;51.140;6.290;2022-11-04T03:37:24;99632.81;;;13.26;76.99
25232;BME280;13176;51.140;6.290;2022-11-04T03:39:51;99633.53;;;13.30;76.76
25232;BME280;13176;51.140;6.290;2022-11-04T03:42:18;99634.53;;;13.27;76.44
25232;BME280;13176;51.140;6.290;2022-11-04T03:44:51;99634.72;;;13.23;76.57
25232;BME280;13176;51.140;6.290;2022-11-04T03:47:20;99656.38;;;13.26;76.54
25232;BME280;13176;51.140;6.290;2022-11-04T03:49:49;99664.47;;;13.42;76.22
25232;BME280;13176;51.140;6.290;2022-11-04T03:52:16;99612.47;;;13.11;76.23
25232;BME280;13176;51.140;6.290;2022-11-04T03:54:44;99640.38;;;13.12;76.19
25232;BME280;13176;51.140;6.290;2022-11-04T03:57:25;99662.06;;;13.16;76.59
25232;BME280;13176;51.140;6.290;2022-11-04T04:00:00;99679.63;;;13.14;76.90
25232;BME280;13176;51.140;6.290;2022-11-04T04:02:57;99588.75;;;12.73;76.99
25232;BME280;13176;51.140;6.290;2022-11-04T04:05:30;99628.47;;;13.05;76.28
25232;BME280;13176;51.140;6.290;2022-11-04T04:11:01;99651.72;;;12.91;76.94
25232;BME280;13176;51.140;6.290;2022-11-04T04:13:52;99656.47;;;12.82;77.45
25232;BME280;13176;51.140;6.290;2022-11-04T04:16:31;99636.63;;;12.55;77.83
25232;BME280;13176;51.140;6.290;2022-11-04T04:19:19;99666.78;;;12.63;77.78
25232;BME280;13176;51.140;6.290;2022-11-04T04:21:51;99630.19;;;12.41;78.34
25232;BME280;13176;51.140;6.290;2022-11-04T04:24:21;99634.63;;;12.39;78.55
25232;BME280;13176;51.140;6.290;2022-11-04T04:27:07;99651.78;;;12.46;78.26
25232;BME280;13176;51.140;6.290;2022-11-04T04:29:53;99672.38;;;12.54;78.08
25232;BME280;13176;51.140;6.290;2022-11-04T04:32:21;99652.78;;;12.43;77.70
25232;BME280;13176;51.140;6.290;2022-11-04T04:34:49;99661.72;;;12.38;77.59
25232;BME280;13176;51.140;6.290;2022-11-04T04:37:22;99633.50;;;12.23;78.23
25232;BME280;13176;51.140;6.290;2022-11-04T04:39:52;99662.66;;;12.35;77.50
25232;BME280;13176;51.140;6.290;2022-11-04T04:42:38;99649.41;;;12.17;77.52
25232;BME280;13176;51.140;6.290;2022-11-04T04:45:30;99680.25;;;12.32;77.75
25232;BME280;13176;51.140;6.290;2022-11-04T04:47:58;99613.06;;;11.88;77.49
25232;BME280;13176;51.140;6.290;2022-11-04T04:50:27;99675.91;;;12.08;77.12
25232;BME280;13176;51.140;6.290;2022-11-04T04:52:57;99678.28;;;12.14;77.51
25232;BME280;13176;51.140;6.290;2022-11-04T04:55:25;99691.66;;;12.29;77.26
25232;BME280;13176;51.140;6.290;2022-11-04T04:57:51;99669.72;;;12.10;76.41
25232;BME280;13176;51.140;6.290;2022-11-04T05:00:19;99674.84;;;12.13;76.60
25232;BME280;13176;51.140;6.290;2022-11-04T05:02:47;99650.22;;;11.96;76.29
25232;BME280;13176;51.140;6.290;2022-11-04T05:05:14;99667.50;;;12.00;76.28
25232;BME280;13176;51.140;6.290;2022-11-04T05:07:46;99656.59;;;11.87;76.19
25232;BME280;13176;51.140;6.290;2022-11-04T05:10:14;99632.44;;;11.58;76.53
25232;BME280;13176;51.140;6.290;2022-11-04T05:12:41;99706.72;;;12.00;76.61
25232;BME280;13176;51.140;6.290;2022-11-04T05:15:40;99661.44;;;11.75;76.78
25232;BME280;13176;51.140;6.290;2022-11-04T05:18:06;99677.75;;;11.81;76.31
25232;BME280;13176;51.140;6.290;2022-11-04T05:20:34;99706.88;;;11.95;76.52
25232;BME280;13176;51.140;6.290;2022-11-04T05:23:03;99682.91;;;11.83;75.57
25232;BME280;13176;51.140;6.290;2022-11-04T05:25:29;99679.03;;;11.70;74.96
25232;BME280;13176;51.140;6.290;2022-11-04T05:28:00;99655.22;;;11.53;75.38
25232;BME280;13176;51.140;6.290;2022-11-04T05:30:27;99657.34;;;11.42;76.37
25232;BME280;13176;51.140;6.290;2022-11-04T05:32:54;99657.44;;;11.39;75.93
25232;BME280;13176;51.140;6.290;2022-11-04T05:35:26;99604.56;;;11.08;76.09
25232;BME280;13176;51.140;6.290;2022-11-04T05:37:54;99701.88;;;11.65;76.04
25232;BME280;13176;51.140;6.290;2022-11-04T05:40:22;99652.13;;;11.42;75.68
25232;BME280;13176;51.140;6.290;2022-11-04T05:42:48;99648.69;;;11.40;75.83
25232;BME280;13176;51.140;6.290;2022-11-04T05:45:15;99682.97;;;11.57;76.44
25232;BME280;13176;51.140;6.290;2022-11-04T05:47:41;99662.19;;;11.54;76.53
25232;BME280;13176;51.140;6.290;2022-11-04T05:50:08;99655.06;;;11.59;76.29
25232;BME280;13176;51.140;6.290;2022-11-04T05:52:34;99601.78;;;11.37;76.79
25232;BME280;13176;51.140;6.290;2022-11-04T05:55:01;99622.94;;;11.55;76.77
25232;BME280;13176;51.140;6.290;2022-11-04T05:57:27;99705.25;;;12.16;76.67
25232;BME280;13176;51.140;6.290;2022-11-04T05:59:53;99613.25;;;11.59;76.41
25232;BME280;13176;51.140;6.290;2022-11-04T06:02:20;99711.50;;;12.12;76.67
25232;BME280;13176;51.140;6.290;2022-11-04T06:04:47;99722.47;;;12.21;76.50
25232;BME280;13176;51.140;6.290;2022-11-04T06:07:13;99720.94;;;12.16;76.66
25232;BME280;13176;51.140;6.290;2022-11-04T06:09:39;99695.34;;;12.01;77.03
25232;BME280;13176;51.140;6.290;2022-11-04T06:12:08;99732.09;;;12.21;76.79
25232;BME280;13176;51.140;6.290;2022-11-04T06:14:35;99675.81;;;11.86;77.07
25232;BME280;13176;51.140;6.290;2022-11-04T06:17:01;99730.69;;;12.11;77.19
25232;BME280;13176;51.140;6.290;2022-11-04T06:19:27;99726.59;;;12.04;76.92
25232;BME280;13176;51.140;6.290;2022-11-04T06:21:54;99684.03;;;11.76;77.45
25232;BME280;13176;51.140;6.290;2022-11-04T06:24:20;99721.59;;;11.98;77.40
25232;BME280;13176;51.140;6.290;2022-11-04T06:26:47;99738.53;;;12.11;77.62
25232;BME280;13176;51.140;6.290;2022-11-04T06:29:13;99719.78;;;12.00;77.27
25232;BME280;13176;51.140;6.290;2022-11-04T06:31:39;99741.13;;;12.12;77.34
25232;BME280;13176;51.140;6.290;2022-11-04T06:34:06;99725.66;;;12.06;77.46
25232;BME280;13176;51.140;6.290;2022-11-04T06:36:32;99725.84;;;12.00;77.54
25232;BME280;13176;51.140;6.290;2022-11-04T06:38:58;99720.56;;;12.02;78.14
25232;BME280;13176;51.140;6.290;2022-11-04T06:41:30;99701.13;;;11.86;77.44
25232;BME280;13176;51.140;6.290;2022-11-04T06:43:59;99735.22;;;12.06;78.08
25232;BME280;13176;51.140;6.290;2022-11-04T06:48:55;99739.00;;;11.99;78.67
25232;BME280;13176;51.140;6.290;2022-11-04T06:51:23;99723.72;;;11.87;79.50
25232;BME280;13176;51.140;6.290;2022-11-04T06:53:49;99736.72;;;11.88;79.54
25232;BME280;13176;51.140;6.290;2022-11-04T06:56:16;99735.81;;;11.89;80.05
25232;BME280;13176;51.140;6.290;2022-11-04T06:58:42;99723.09;;;11.80;79.73
25232;BME280;13176;51.140;6.290;2022-11-04T07:01:12;99711.34;;;11.67;79.79
25232;BME280;13176;51.140;6.290;2022-11-04T07:03:51;99722.34;;;11.77;79.68
25232;BME280;13176;51.140;6.290;2022-11-04T07:06:18;99784.81;;;12.09;79.62
25232;BME280;13176;51.140;6.290;2022-11-04T07:08:46;99765.25;;;11.96;80.06
25232;BME280;13176;51.140;6.290;2022-11-04T07:11:13;99750.59;;;11.90;80.10
25232;BME280;13176;51.140;6.290;2022-11-04T07:13:40;99766.16;;;11.95;80.14
25232;BME280;13176;51.140;6.290;2022-11-04T07:16:07;99728.16;;;11.85;79.99
25232;BME280;13176;51.140;6.290;2022-11-04T07:18:34;99775.13;;;12.12;79.83
25232;BME280;13176;51.140;6.290;2022-11-04T07:21:01;99769.81;;;12.14;79.85
25232;BME280;13176;51.140;6.290;2022-11-04T07:23:35;99780.06;;;12.20;79.85
25232;BME280;13176;51.140;6.290;2022-11-04T07:26:02;99780.59;;;12.29;79.89
25232;BME280;13176;51.140;6.290;2022-11-04T07:28:28;99782.41;;;12.27;80.10
25232;BME280;13176;51.140;6.290;2022-11-04T07:30:56;99774.41;;;12.32;79.66
25232;BME280;13176;51.140;6.290;2022-11-04T07:33:24;99799.78;;;12.52;79.73
25232;BME280;13176;51.140;6.290;2022-11-04T07:35:51;99803.09;;;12.57;79.86
25232;BME280;13176;51.140;6.290;2022-11-04T07:38:23;99792.84;;;12.51;80.33
25232;BME280;13176;51.140;6.290;2022-11-04T07:40:49;99741.53;;;12.25;79.98
25232;BME280;13176;51.140;6.290;2022-11-04T07:43:16;99784.19;;;12.49;79.97
25232;BME280;13176;51.140;6.290;2022-11-04T07:45:42;99799.47;;;12.61;80.46
25232;BME280;13176;51.140;6.290;2022-11-04T07:48:09;99793.47;;;12.58;80.57
25232;BME280;13176;51.140;6.290;2022-11-04T07:50:39;99809.72;;;12.67;80.81
25232;BME280;13176;51.140;6.290;2022-11-04T07:53:06;99809.50;;;12.73;80.90
25232;BME280;13176;51.140;6.290;2022-11-04T07:55:36;99852.31;;;12.95;80.59
25232;BME280;13176;51.140;6.290;2022-11-04T07:58:08;99754.03;;;12.40;80.64
25232;BME280;13176;51.140;6.290;2022-11-04T08:00:35;99804.81;;;12.81;80.30
25232;BME280;13176;51.140;6.290;2022-11-04T08:03:01;99827.16;;;12.91;80.21
25232;BME280;13176;51.140;6.290;2022-11-04T08:05:28;99851.88;;;13.07;80.25
25232;BME280;13176;51.140;6.290;2022-11-04T08:07:54;99834.69;;;13.00;80.58
25232;BME280;13176;51.140;6.290;2022-11-04T08:10:22;99806.47;;;12.84;80.36
25232;BME280;13176;51.140;6.290;2022-11-04T08:12:50;99856.75;;;13.16;80.59
25232;BME280;13176;51.140;6.290;2022-11-04T08:15:17;99851.63;;;13.13;80.10
25232;BME280;13176;51.140;6.290;2022-11-04T08:17:43;99849.44;;;13.24;79.33
25232;BME280;13176;51.140;6.290;2022-11-04T08:20:10;99869.84;;;13.39;79.00
25232;BME280;13176;51.140;6.290;2022-11-04T08:22:37;99818.25;;;13.18;77.73
25232;BME280;13176;51.140;6.290;2022-11-04T08:25:04;99819.72;;;13.25;77.18
25232;BME280;13176;51.140;6.290;2022-11-04T08:27:31;99856.31;;;13.50;76.88
25232;BME280;13176;51.140;6.290;2022-11-04T08:29:58;99869.22;;;13.54;77.49
25232;BME280;13176;51.140;6.290;2022-11-04T08:32:25;99865.56;;;13.58;77.44
25232;BME280;13176;51.140;6.290;2022-11-04T08:34:51;99844.84;;;13.52;77.87
25232;BME280;13176;51.140;6.290;2022-11-04T08:37:17;99827.59;;;13.47;77.61
25232;BME280;13176;51.140;6.290;2022-11-04T08:39:44;99813.91;;;13.40;76.89
25232;BME280;13176;51.140;6.290;2022-11-04T08:42:10;99785.47;;;13.30;76.02
25232;BME280;13176;51.140;6.290;2022-11-04T08:44:37;99853.81;;;13.68;75.18
25232;BME280;13176;51.140;6.290;2022-11-04T08:47:04;99876.19;;;13.76;75.53
25232;BME280;13176;51.140;6.290;2022-11-04T08:49:31;99841.88;;;13.61;75.09
25232;BME280;13176;51.140;6.290;2022-11-04T08:52:02;99873.44;;;13.79;75.87
25232;BME280;13176;51.140;6.290;2022-11-04T08:54:29;99807.13;;;13.56;75.82
25232;BME280;13176;51.140;6.290;2022-11-04T08:56:55;99840.44;;;13.95;74.58
25232;BME280;13176;51.140;6.290;2022-11-04T08:59:21;99871.41;;;14.29;75.49
25232;BME280;13176;51.140;6.290;2022-11-04T09:01:50;99886.38;;;14.47;75.42
25232;BME280;13176;51.140;6.290;2022-11-04T09:04:16;99864.31;;;14.31;75.23
25232;BME280;13176;51.140;6.290;2022-11-04T09:06:45;99888.88;;;14.50;74.73
25232;BME280;13176;51.140;6.290;2022-11-04T09:09:14;99892.41;;;14.49;74.42
25232;BME280;13176;51.140;6.290;2022-11-04T09:11:42;99874.03;;;14.29;73.80
25232;BME280;13176;51.140;6.290;2022-11-04T09:14:09;99901.94;;;14.31;73.66
25232;BME280;13176;51.140;6.290;2022-11-04T09:16:38;99916.22;;;14.24;73.15
25232;BME280;13176;51.140;6.290;2022-11-04T09:19:05;99881.31;;;14.01;73.46
25232;BME280;13176;51.140;6.290;2022-11-04T09:21:32;99872.63;;;13.99;73.55
25232;BME280;13176;51.140;6.290;2022-11-04T09:23:58;99897.72;;;14.06;74.31
25232;BME280;13176;51.140;6.290;2022-11-04T09:26:25;99891.31;;;14.13;73.99
25232;BME280;13176;51.140;6.290;2022-11-04T09:28:53;99916.69;;;14.34;74.14
25232;BME280;13176;51.140;6.290;2022-11-04T09:31:20;99910.47;;;14.36;74.18
25232;BME280;13176;51.140;6.290;2022-11-04T09:33:46;99879.09;;;14.12;74.57
25232;BME280;13176;51.140;6.290;2022-11-04T09:36:13;99890.94;;;14.22;73.79
25232;BME280;13176;51.140;6.290;2022-11-04T09:38:41;99906.84;;;14.19;74.16
25232;BME280;13176;51.140;6.290;2022-11-04T09:41:41;99925.22;;;14.39;73.67
25232;BME280;13176;51.140;6.290;2022-11-04T09:44:21;99921.44;;;14.46;72.33
25232;BME280;13176;51.140;6.290;2022-11-04T09:46:50;99917.09;;;14.45;72.66
25232;BME280;13176;51.140;6.290;2022-11-04T09:49:17;99876.91;;;14.23;73.09
25232;BME280;13176;51.140;6.290;2022-11-04T09:51:45;99866.16;;;14.29;73.80
25232;BME280;13176;51.140;6.290;2022-11-04T09:55:05;99922.75;;;14.76;73.37
25232;BME280;13176;51.140;6.290;2022-11-04T09:57:16;99923.13;;;14.86;72.99
25232;BME280;13176;51.140;6.290;2022-11-04T09:59:43;99934.00;;;14.97;72.57
25232;BME280;13176;51.140;6.290;2022-11-04T10:08:05;99910.75;;;15.65;71.17
25232;BME280;13176;51.140;6.290;2022-11-04T10:13:52;99867.34;;;16.94;64.75
25232;BME280;13176;51.140;6.290;2022-11-04T10:19:36;99905.34;;;17.85;62.26
25232;BME280;13176;51.140;6.290;2022-11-04T10:22:27;99888.41;;;17.43;63.11
25232;BME280;13176;51.140;6.290;2022-11-04T10:25:12;99925.09;;;17.30;63.62
25232;BME280;13176;51.140;6.290;2022-11-04T10:27:42;99921.78;;;16.78;64.42
25232;BME280;13176;51.140;6.290;2022-11-04T10:33:08;99909.69;;;16.91;62.83
25232;BME280;13176;51.140;6.290;2022-11-04T10:35:40;99912.94;;;16.96;63.02
25232;BME280;13176;51.140;6.290;2022-11-04T10:38:15;99891.94;;;16.60;63.58
25232;BME280;13176;51.140;6.290;2022-11-04T10:40:46;99901.00;;;16.89;62.85
25232;BME280;13176;51.140;6.290;2022-11-04T10:43:17;99921.59;;;17.47;61.27
25232;BME280;13176;51.140;6.290;2022-11-04T10:46:14;99943.38;;;17.50;60.96
25232;BME280;13176;51.140;6.290;2022-11-04T10:49:00;99941.09;;;17.27;61.87
25232;BME280;13176;51.140;6.290;2022-11-04T10:51:28;99922.69;;;17.11;62.54
25232;BME280;13176;51.140;6.290;2022-11-04T10:53:56;99929.00;;;16.91;63.50
25232;BME280;13176;51.140;6.290;2022-11-04T10:56:35;99919.63;;;16.69;63.36
25232;BME280;13176;51.140;6.290;2022-11-04T10:59:18;99896.19;;;16.80;62.95
25232;BME280;13176;51.140;6.290;2022-11-04T11:01:51;99921.00;;;16.76;62.87
25232;BME280;13176;51.140;6.290;2022-11-04T11:04:29;99916.59;;;16.76;64.37
25232;BME280;13176;51.140;6.290;2022-11-04T11:06:57;99944.94;;;17.05;63.08
25232;BME280;13176;51.140;6.290;2022-11-04T11:12:22;99963.47;;;17.04;63.90
25232;BME280;13176;51.140;6.290;2022-11-04T11:15:32;99960.78;;;17.20;64.05
25232;BME280;13176;51.140;6.290;2022-11-04T11:20:34;99941.31;;;16.91;64.27
25232;BME280;13176;51.140;6.290;2022-11-04T11:23:04;99932.78;;;16.86;63.40
25232;BME280;13176;51.140;6.290;2022-11-04T11:25:44;99962.69;;;16.85;64.12
25232;BME280;13176;51.140;6.290;2022-11-04T11:28:23;99976.66;;;16.87;65.43
25232;BME280;13176;51.140;6.290;2022-11-04T11:33:25;99978.66;;;16.82;64.85
25232;BME280;13176;51.140;6.290;2022-11-04T11:36:03;99996.94;;;16.51;66.44
25232;BME280;13176;51.140;6.290;2022-11-04T11:38:33;99977.25;;;16.04;67.61
25232;BME280;13176;51.140;6.290;2022-11-04T11:41:18;99981.69;;;15.85;69.04
25232;BME280;13176;51.140;6.290;2022-11-04T11:43:52;100001.19;;;15.81;69.73
25232;BME280;13176;51.140;6.290;2022-11-04T11:46:23;100005.16;;;15.71;70.94
25232;BME280;13176;51.140;6.290;2022-11-04T11:48:53;99977.47;;;15.44;71.29
25232;BME280;13176;51.140;6.290;2022-11-04T11:51:32;100011.78;;;15.61;71.80
25232;BME280;13176;51.140;6.290;2022-11-04T11:57:49;100010.06;;;15.60;72.54
25232;BME280;13176;51.140;6.290;2022-11-04T12:00:45;100005.59;;;15.62;72.82
25232;BME280;13176;51.140;6.290;2022-11-04T12:03:22;99983.25;;;15.52;72.67
25232;BME280;13176;51.140;6.290;2022-11-04T12:15:04;100019.03;;;15.93;72.43
25232;BME280;13176;51.140;6.290;2022-11-04T12:18:03;100018.41;;;15.88;72.13
25232;BME280;13176;51.140;6.290;2022-11-04T12:29:06;99998.03;;;16.10;70.51
25232;BME280;13176;51.140;6.290;2022-11-04T12:40:33;100032.19;;;16.65;70.42
25232;BME280;13176;51.140;6.290;2022-11-04T12:45:54;100029.47;;;16.50;70.85
25232;BME280;13176;51.140;6.290;2022-11-04T12:51:11;100039.31;;;16.28;72.06
25232;BME280;13176;51.140;6.290;2022-11-04T12:57:03;100024.44;;;15.90;72.96
25232;BME280;13176;51.140;6.290;2022-11-04T12:59:40;100045.41;;;16.10;73.01
25232;BME280;13176;51.140;6.290;2022-11-04T13:02:15;100048.31;;;16.04;73.51
25232;BME280;13176;51.140;6.290;2022-11-04T13:08:12;100052.25;;;16.14;73.31
25232;BME280;13176;51.140;6.290;2022-11-04T13:10:58;100058.09;;;16.02;72.15
25232;BME280;13176;51.140;6.290;2022-11-04T13:13:37;100042.13;;;16.05;71.93
25232;BME280;13176;51.140;6.290;2022-11-04T13:16:10;100040.72;;;16.16;72.15
25232;BME280;13176;51.140;6.290;2022-11-04T13:18:39;100041.34;;;16.21;71.76
25232;BME280;13176;51.140;6.290;2022-11-04T13:21:16;100051.44;;;16.32;71.29
25232;BME280;13176;51.140;6.290;2022-11-04T13:23:49;100063.78;;;16.30;71.23
25232;BME280;13176;51.140;6.290;2022-11-04T13:26:17;100030.06;;;16.01;70.88
25232;BME280;13176;51.140;6.290;2022-11-04T13:28:50;100026.78;;;15.96;70.86
25232;BME280;13176;51.140;6.290;2022-11-04T13:36:50;100074.59;;;16.24;70.73
25232;BME280;13176;51.140;6.290;2022-11-04T13:39:25;100083.41;;;16.23;71.03
25232;BME280;13176;51.140;6.290;2022-11-04T13:44:37;100037.88;;;16.02;70.58
25232;BME280;13176;51.140;6.290;2022-11-04T13:47:22;100069.47;;;16.21;70.25
25232;BME280;13176;51.140;6.290;2022-11-04T13:49:52;100062.25;;;16.06;70.20
25232;BME280;13176;51.140;6.290;2022-11-04T13:52:31;100063.19;;;16.05;70.21
25232;BME280;13176;51.140;6.290;2022-11-04T13:55:05;100098.94;;;16.29;70.76
25232;BME280;13176;51.140;6.290;2022-11-04T13:57:48;100095.38;;;16.30;70.94
25232;BME280;13176;51.140;6.290;2022-11-04T14:15:59;100119.25;;;16.81;66.28
25232;BME280;13176;51.140;6.290;2022-11-04T14:18:29;100120.69;;;16.88;66.30
25232;BME280;13176;51.140;6.290;2022-11-04T14:23:36;100103.78;;;16.75;67.02
25232;BME280;13176;51.140;6.290;2022-11-04T14:26:08;100085.97;;;16.43;66.67
25232;BME280;13176;51.140;6.290;2022-11-04T14:28:36;100143.63;;;16.67;66.96
25232;BME280;13176;51.140;6.290;2022-11-04T14:31:05;100148.63;;;16.55;66.87
25232;BME280;13176;51.140;6.290;2022-11-04T14:33:55;100115.16;;;16.20;67.42
25232;BME280;13176;51.140;6.290;2022-11-04T14:43:58;100155.09;;;15.91;67.47
25232;BME280;13176;51.140;6.290;2022-11-04T14:46:28;100172.72;;;15.89;68.17
25232;BME280;13176;51.140;6.290;2022-11-04T14:48:57;100173.13;;;15.80;68.71
25232;BME280;13176;51.140;6.290;2022-11-04T14:51:32;100173.38;;;15.74;69.00
25232;BME280;13176;51.140;6.290;2022-11-04T14:54:21;100187.69;;;15.67;69.53
25232;BME280;13176;51.140;6.290;2022-11-04T14:57:06;100138.38;;;15.32;69.83
25232;BME280;13176;51.140;6.290;2022-11-04T14:59:32;100159.03;;;15.41;70.34
25232;BME280;13176;51.140;6.290;2022-11-04T15:01:59;100161.91;;;15.35;70.59
25232;BME280;13176;51.140;6.290;2022-11-04T15:04:27;100207.69;;;15.51;71.32
25232;BME280;13176;51.140;6.290;2022-11-04T15:06:57;100213.06;;;15.48;71.55
25232;BME280;13176;51.140;6.290;2022-11-04T15:09:27;100181.50;;;15.28;71.42
25232;BME280;13176;51.140;6.290;2022-11-04T15:12:05;100212.50;;;15.42;72.00
25232;BME280;13176;51.140;6.290;2022-11-04T15:14:50;100203.31;;;15.30;72.19
25232;BME280;13176;51.140;6.290;2022-11-04T15:17:19;100197.63;;;15.19;72.38
25232;BME280;13176;51.140;6.290;2022-11-04T15:19:50;100193.63;;;15.09;72.95
25232;BME280;13176;51.140;6.290;2022-11-04T15:22:17;100231.31;;;15.31;73.02
25232;BME280;13176;51.140;6.290;2022-11-04T15:24:44;100223.66;;;15.25;73.22
25232;BME280;13176;51.140;6.290;2022-11-04T15:27:15;100234.72;;;15.33;73.37
25232;BME280;13176;51.140;6.290;2022-11-04T15:29:59;100240.91;;;15.32;73.50
25232;BME280;13176;51.140;6.290;2022-11-04T15:32:27;100240.97;;;15.31;73.84